Time;durP1;ratioP1;P1;durP2;ratioP2;P2;SDS_P1;SDS_P2;PMS_P1;PMS_P2;Temp;Humidity;BMP_temperature;BMP_pressure;BME280_temperature;BME280_humidity;BME280_pressure;Samples;Min_cycle;Max_cycle;Signal;HPM_P1;HPM_P2
2023/04/25 00:01:47;;;;;;;18.45;3.13;;;7.20;99.90;;;;;;4975100;28;20056;-83
2023/04/25 00:04:33;;;;;;;17.30;2.83;;;7.20;99.90;;;;;;4975676;28;20061;-81
2023/04/25 00:07:20;;;;;;;12.32;3.33;;;7.10;99.90;;;;;;4975044;28;20050;-84
2023/04/25 00:10:07;;;;;;;12.50;3.45;;;7.20;99.90;;;;;;4974249;28;20050;-81
2023/04/25 00:12:53;;;;;;;12.43;2.33;;;7.20;99.90;;;;;;4992841;28;20046;-81
2023/04/25 00:15:41;;;;;;;21.73;4.85;;;7.20;99.90;;;;;;4974648;28;20510;-82
2023/04/25 00:18:30;;;;;;;22.30;4.40;;;7.20;99.90;;;;;;4975034;28;20124;-85
2023/04/25 00:21:17;;;;;;;13.50;2.25;;;7.20;99.90;;;;;;4991311;28;20050;-86
2023/04/25 00:24:04;;;;;;;13.85;3.22;;;7.20;99.90;;;;;;4978117;28;20415;-83
2023/04/25 00:26:50;;;;;;;15.18;2.78;;;7.20;99.90;;;;;;4996961;28;20054;-83
2023/04/25 00:29:39;;;;;;;16.67;2.88;;;7.20;99.90;;;;;;4993924;28;20060;-82
2023/04/25 00:32:25;;;;;;;13.18;2.70;;;7.10;99.90;;;;;;4968797;28;20134;-85
2023/04/25 00:35:11;;;;;;;15.90;2.38;;;7.20;99.90;;;;;;4998189;28;20060;-83
2023/04/25 00:37:57;;;;;;;12.23;2.47;;;7.10;99.90;;;;;;5010415;28;20513;-80
2023/04/25 00:40:44;;;;;;;13.65;2.40;;;7.10;99.90;;;;;;5010906;28;20050;-85
2023/04/25 00:43:32;;;;;;;14.80;2.78;;;7.10;99.90;;;;;;4993923;28;20451;-85
2023/04/25 00:46:18;;;;;;;14.70;3.30;;;7.00;99.90;;;;;;5011332;28;20120;-84
2023/04/25 00:49:04;;;;;;;16.98;2.95;;;7.00;99.90;;;;;;4993041;28;20077;-82
2023/04/25 00:51:50;;;;;;;14.77;2.95;;;7.00;99.90;;;;;;4992476;28;20046;-84
2023/04/25 00:54:37;;;;;;;27.73;4.13;;;7.00;99.90;;;;;;4980883;28;20053;-83
2023/04/25 00:57:23;;;;;;;18.42;2.83;;;7.00;99.90;;;;;;4993784;28;20050;-84
2023/04/25 01:00:10;;;;;;;18.48;4.97;;;7.00;99.90;;;;;;4981460;28;20050;-82
2023/04/25 01:02:56;;;;;;;16.75;2.75;;;7.00;99.90;;;;;;4992610;28;20057;-83
2023/04/25 01:05:43;;;;;;;24.30;3.95;;;7.00;99.90;;;;;;4978921;28;20057;-81
2023/04/25 01:08:30;;;;;;;18.73;3.83;;;7.00;99.90;;;;;;4980180;28;20054;-84
2023/04/25 01:11:16;;;;;;;12.30;2.25;;;7.00;99.90;;;;;;4980885;28;20058;-83
2023/04/25 01:14:05;;;;;;;17.70;2.75;;;7.00;99.90;;;;;;4980292;28;20045;-84
2023/04/25 01:16:52;;;;;;;14.18;2.95;;;7.00;99.90;;;;;;4993373;28;20485;-83
2023/04/25 01:19:39;;;;;;;20.33;3.22;;;7.00;99.90;;;;;;4991612;28;20065;-83
2023/04/25 01:22:28;;;;;;;19.92;2.58;;;7.00;99.90;;;;;;4993310;28;20053;-82
2023/04/25 01:25:14;;;;;;;15.45;2.63;;;6.90;99.90;;;;;;4993475;28;20545;-82
2023/04/25 01:28:00;;;;;;;12.73;2.35;;;6.80;99.90;;;;;;4991799;28;20076;-81
2023/04/25 01:30:47;;;;;;;19.63;4.50;;;6.90;99.90;;;;;;5011646;28;20140;-84
2023/04/25 01:33:33;;;;;;;12.07;2.05;;;6.90;99.90;;;;;;4980460;28;20061;-84
2023/04/25 01:36:20;;;;;;;20.02;3.67;;;6.90;99.90;;;;;;4992165;28;20144;-82
2023/04/25 01:39:07;;;;;;;13.15;3.55;;;6.90;99.90;;;;;;4992997;28;20089;-82
2023/04/25 01:41:53;;;;;;;14.45;3.10;;;6.90;99.90;;;;;;4994121;28;20050;-84
2023/04/25 01:44:39;;;;;;;16.17;2.20;;;6.80;99.90;;;;;;5010186;28;20038;-81
2023/04/25 01:47:26;;;;;;;17.42;2.83;;;6.70;99.90;;;;;;5011152;28;20064;-81
2023/04/25 01:50:12;;;;;;;9.25;2.10;;;6.70;99.90;;;;;;5009451;28;20192;-83
2023/04/25 01:52:58;;;;;;;15.45;3.28;;;6.70;99.90;;;;;;4980029;28;20058;-85
2023/04/25 01:55:44;;;;;;;17.75;2.30;;;6.60;99.90;;;;;;5010407;28;20054;-82
2023/04/25 01:58:30;;;;;;;17.92;2.28;;;6.60;99.90;;;;;;4994304;28;20058;-84
2023/04/25 02:01:16;;;;;;;18.08;2.90;;;6.60;99.90;;;;;;4991680;28;20469;-84
2023/04/25 02:04:02;;;;;;;15.18;3.15;;;6.60;99.90;;;;;;5000060;28;20050;-84
2023/04/25 02:06:48;;;;;;;14.20;2.55;;;6.50;99.90;;;;;;4999114;28;20725;-83
2023/04/25 02:09:34;;;;;;;14.90;2.22;;;6.50;99.90;;;;;;4997891;28;20140;-80
2023/04/25 02:12:20;;;;;;;10.88;2.10;;;6.50;99.90;;;;;;4998122;28;20536;-83
2023/04/25 02:15:07;;;;;;;17.40;3.55;;;6.50;99.90;;;;;;4986196;28;20060;-79
2023/04/25 02:17:53;;;;;;;15.82;2.33;;;6.50;99.90;;;;;;4999686;28;20062;-85
2023/04/25 02:20:39;;;;;;;15.50;2.17;;;6.60;99.90;;;;;;4999600;28;20054;-80
2023/04/25 02:23:27;;;;;;;14.35;2.45;;;6.60;99.90;;;;;;4998095;28;20049;-81
2023/04/25 02:26:14;;;;;;;13.15;2.38;;;6.70;99.90;;;;;;4998285;28;20425;-83
2023/04/25 02:29:01;;;;;;;8.70;1.60;;;6.70;99.90;;;;;;4998456;28;20056;-82
2023/04/25 02:31:47;;;;;;;10.98;1.98;;;6.70;99.90;;;;;;4986907;28;20050;-84
2023/04/25 02:34:33;;;;;;;12.40;2.08;;;6.60;99.90;;;;;;4984639;28;20054;-82
2023/04/25 02:37:23;;;;;;;12.98;3.10;;;6.60;99.90;;;;;;4998831;28;20453;-83
2023/04/25 02:40:09;;;;;;;15.38;2.30;;;6.60;99.90;;;;;;4997872;28;20069;-83
2023/04/25 02:42:55;;;;;;;21.80;2.72;;;6.50;99.90;;;;;;4986288;28;20057;-80
2023/04/25 02:45:41;;;;;;;12.13;2.25;;;6.50;99.90;;;;;;4999454;28;20511;-81
2023/04/25 02:48:29;;;;;;;13.95;3.17;;;6.50;99.90;;;;;;4998060;28;20046;-81
2023/04/25 02:51:16;;;;;;;14.52;1.73;;;6.50;99.90;;;;;;4999494;28;20045;-83
2023/04/25 02:54:02;;;;;;;18.98;2.80;;;6.40;99.90;;;;;;5013685;28;20140;-84
2023/04/25 02:56:48;;;;;;;11.93;2.58;;;6.40;99.90;;;;;;5014934;28;20500;-80
2023/04/25 02:59:34;;;;;;;20.45;2.30;;;6.40;99.90;;;;;;5002446;28;20128;-84
2023/04/25 03:02:20;;;;;;;12.98;3.35;;;6.40;99.90;;;;;;5015519;28;20061;-82
2023/04/25 03:05:07;;;;;;;8.88;2.25;;;6.40;99.90;;;;;;5015404;28;20050;-82
2023/04/25 03:07:53;;;;;;;14.15;2.55;;;6.40;99.90;;;;;;4986498;28;20487;-84
2023/04/25 03:10:39;;;;;;;17.40;2.67;;;6.40;99.90;;;;;;4997933;28;20062;-81
2023/04/25 03:13:25;;;;;;;15.02;2.35;;;6.40;99.90;;;;;;4996755;28;20058;-82
2023/04/25 03:16:11;;;;;;;7.03;1.42;;;6.50;99.90;;;;;;5013829;28;20060;-82
2023/04/25 03:18:57;;;;;;;13.60;1.95;;;6.40;99.90;;;;;;4995108;28;20058;-85
2023/04/25 03:21:44;;;;;;;13.52;2.13;;;6.40;99.90;;;;;;4994845;28;20117;-84
2023/04/25 03:24:30;;;;;;;17.08;2.92;;;6.40;99.90;;;;;;5013586;28;20514;-84
2023/04/25 03:27:17;;;;;;;17.65;2.78;;;6.30;99.90;;;;;;4996585;28;20423;-85
2023/04/25 03:30:04;;;;;;;13.88;2.85;;;6.30;99.90;;;;;;4994194;28;20050;-83
2023/04/25 03:32:50;;;;;;;18.55;3.72;;;6.30;99.90;;;;;;4995021;28;20559;-83
2023/04/25 03:35:36;;;;;;;20.90;2.85;;;6.30;99.90;;;;;;5012132;28;20510;-80
2023/04/25 03:38:22;;;;;;;24.80;3.30;;;6.20;99.90;;;;;;4994595;28;20085;-83
2023/04/25 03:41:08;;;;;;;15.18;2.20;;;6.20;99.90;;;;;;5012241;28;20054;-82
2023/04/25 03:43:54;;;;;;;15.55;3.20;;;6.20;99.90;;;;;;5013650;28;20141;-79
2023/04/25 03:46:40;;;;;;;18.90;1.70;;;6.20;99.90;;;;;;4995103;28;20053;-84
2023/04/25 03:49:26;;;;;;;12.93;1.80;;;6.10;99.90;;;;;;5012731;28;20135;-81
2023/04/25 03:52:12;;;;;;;13.07;2.38;;;6.00;99.90;;;;;;4998732;28;20133;-83
2023/04/25 03:54:58;;;;;;;16.75;2.35;;;6.10;99.90;;;;;;4993822;28;20085;-81
2023/04/25 03:57:45;;;;;;;18.33;2.15;;;6.00;99.90;;;;;;4968363;28;20513;-84
2023/04/25 04:00:31;;;;;;;13.52;2.05;;;6.00;99.90;;;;;;4995156;28;20128;-83
2023/04/25 04:03:17;;;;;;;12.55;2.25;;;5.90;99.90;;;;;;4998428;28;20054;-81
2023/04/25 04:06:07;;;;;;;14.93;2.20;;;6.00;99.90;;;;;;4981344;28;20064;-82
2023/04/25 04:08:53;;;;;;;11.57;2.53;;;6.00;99.90;;;;;;4993793;28;20050;-84
2023/04/25 04:11:40;;;;;;;16.38;2.28;;;5.90;99.90;;;;;;4980885;28;20053;-81
2023/04/25 04:14:26;;;;;;;11.40;3.47;;;6.00;99.90;;;;;;5012852;28;20057;-84
2023/04/25 04:17:12;;;;;;;18.15;2.30;;;6.00;99.90;;;;;;4993811;28;20054;-82
2023/04/25 04:19:58;;;;;;;12.15;2.17;;;6.00;99.90;;;;;;4993332;28;20081;-80
2023/04/25 04:22:44;;;;;;;17.33;2.10;;;6.00;99.90;;;;;;5012112;28;20045;-79
2023/04/25 04:25:30;;;;;;;11.50;2.20;;;6.10;99.90;;;;;;4993819;28;20054;-85
2023/04/25 04:28:17;;;;;;;18.35;3.85;;;6.20;99.90;;;;;;4976626;28;20426;-80
2023/04/25 04:31:03;;;;;;;10.95;1.73;;;6.30;99.90;;;;;;4991499;28;20050;-79
2023/04/25 04:33:50;;;;;;;7.50;1.85;;;6.10;99.90;;;;;;4990961;28;20119;-83
2023/04/25 04:36:36;;;;;;;9.80;1.63;;;6.00;99.90;;;;;;4992374;28;20061;-81
2023/04/25 04:39:22;;;;;;;9.27;1.75;;;5.90;99.90;;;;;;4990358;28;20050;-84
2023/04/25 04:42:09;;;;;;;12.57;2.20;;;5.80;99.90;;;;;;4991244;28;20065;-82
2023/04/25 04:44:55;;;;;;;11.18;1.67;;;5.80;99.90;;;;;;4991729;28;20078;-83
2023/04/25 04:47:41;;;;;;;15.55;2.95;;;5.70;99.90;;;;;;4992249;28;20414;-84
2023/04/25 04:50:27;;;;;;;12.02;2.53;;;5.70;99.90;;;;;;4992063;28;20054;-83
2023/04/25 04:53:13;;;;;;;28.30;3.15;;;5.80;99.90;;;;;;4991252;28;20050;-82
2023/04/25 04:55:59;;;;;;;9.32;2.05;;;5.80;99.90;;;;;;4990223;28;20066;-80
2023/04/25 04:58:45;;;;;;;10.98;2.58;;;5.90;99.90;;;;;;4989943;28;20093;-82
2023/04/25 05:01:31;;;;;;;15.43;2.38;;;6.00;99.90;;;;;;4990145;28;20525;-82
2023/04/25 05:04:17;;;;;;;16.17;2.63;;;6.00;99.90;;;;;;4977071;28;20054;-85
2023/04/25 05:07:03;;;;;;;13.68;1.80;;;6.10;99.90;;;;;;4977125;28;20084;-79
2023/04/25 05:09:49;;;;;;;14.38;1.85;;;6.20;99.90;;;;;;4989846;28;20108;-83
2023/04/25 05:12:35;;;;;;;11.55;1.30;;;6.30;99.90;;;;;;4990024;28;20054;-85
2023/04/25 05:15:21;;;;;;;9.38;2.97;;;6.30;99.90;;;;;;4991083;28;20054;-79
2023/04/25 05:18:07;;;;;;;11.80;2.13;;;6.30;99.90;;;;;;4991122;28;20054;-81
2023/04/25 05:20:53;;;;;;;9.82;1.70;;;6.30;99.90;;;;;;4989588;28;20049;-83
2023/04/25 05:23:40;;;;;;;8.05;1.58;;;6.30;99.90;;;;;;4992588;28;20108;-83
2023/04/25 05:26:26;;;;;;;12.43;1.80;;;6.30;99.90;;;;;;4991415;28;20050;-83
2023/04/25 05:29:12;;;;;;;20.23;3.60;;;6.40;99.90;;;;;;4972933;28;20061;-82
2023/04/25 05:31:58;;;;;;;13.80;2.17;;;6.40;99.90;;;;;;4974144;28;20049;-81
2023/04/25 05:34:44;;;;;;;15.27;1.75;;;6.50;99.90;;;;;;4973947;28;20503;-82
2023/04/25 05:37:31;;;;;;;14.80;1.60;;;6.50;99.90;;;;;;4972042;28;20061;-85
2023/04/25 05:40:17;;;;;;;10.13;1.50;;;6.50;99.90;;;;;;4973512;28;20066;-85
2023/04/25 05:43:03;;;;;;;12.07;1.90;;;6.60;99.90;;;;;;4972954;28;20038;-85
2023/04/25 05:45:49;;;;;;;13.93;1.90;;;6.60;99.90;;;;;;4972643;28;20050;-84
2023/04/25 05:48:35;;;;;;;14.63;1.70;;;6.70;99.90;;;;;;4960313;28;20455;-85
2023/04/25 05:51:21;;;;;;;7.00;1.40;;;7.00;99.90;;;;;;4960332;28;20510;-84
2023/04/25 05:54:07;;;;;;;11.13;2.10;;;7.10;99.90;;;;;;4959808;28;20100;-84
2023/04/25 05:56:53;;;;;;;19.55;1.73;;;7.40;99.90;;;;;;4972492;28;20196;-81
2023/04/25 05:59:39;;;;;;;12.80;1.70;;;7.50;99.90;;;;;;4988470;28;20049;-85
2023/04/25 06:02:26;;;;;;;19.02;2.45;;;7.60;99.90;;;;;;4972101;28;20085;-83
2023/04/25 06:05:12;;;;;;;10.68;2.15;;;7.60;99.90;;;;;;4959269;28;20046;-83
2023/04/25 06:07:58;;;;;;;14.98;2.58;;;7.60;99.90;;;;;;4972098;28;20132;-84
2023/04/25 06:10:44;;;;;;;16.38;2.63;;;7.60;99.90;;;;;;4960489;28;20058;-85
2023/04/25 06:13:30;;;;;;;15.35;1.67;;;7.50;99.90;;;;;;4989068;28;20462;-86
2023/04/25 06:16:16;;;;;;;8.48;1.50;;;7.30;99.90;;;;;;4972478;28;20054;-83
2023/04/25 06:19:02;;;;;;;9.10;2.35;;;7.10;99.90;;;;;;4989432;28;20065;-82
2023/04/25 06:21:48;;;;;;;6.95;1.77;;;7.10;99.90;;;;;;4972151;28;20172;-82
2023/04/25 06:24:35;;;;;;;6.90;1.67;;;7.10;99.90;;;;;;4972180;28;20141;-85
2023/04/25 06:27:21;;;;;;;7.75;1.55;;;7.10;99.90;;;;;;4980261;28;20132;-83
2023/04/25 06:30:07;;;;;;;7.22;1.58;;;7.10;99.90;;;;;;4988693;28;20057;-82
2023/04/25 06:32:54;;;;;;;11.20;1.83;;;7.10;99.90;;;;;;4988992;28;20151;-79
2023/04/25 06:35:40;;;;;;;5.35;0.95;;;7.00;99.90;;;;;;4988958;28;20090;-83
2023/04/25 06:38:26;;;;;;;7.00;1.48;;;7.10;99.90;;;;;;4989685;28;20048;-84
2023/04/25 06:41:12;;;;;;;12.95;1.58;;;7.10;99.90;;;;;;4989448;28;20046;-84
2023/04/25 06:43:58;;;;;;;10.55;2.00;;;7.20;99.90;;;;;;4988822;28;20141;-80
2023/04/25 06:46:45;;;;;;;10.20;1.50;;;7.30;99.90;;;;;;4975625;28;20058;-83
2023/04/25 06:49:31;;;;;;;7.70;1.35;;;7.40;99.90;;;;;;5006290;28;20192;-80
2023/04/25 06:52:17;;;;;;;8.07;1.23;;;7.50;99.90;;;;;;4994935;28;20046;-82
2023/04/25 06:55:05;;;;;;;6.22;2.33;;;7.60;99.90;;;;;;4991940;28;20054;-79
2023/04/25 06:57:51;;;;;;;7.00;1.83;;;7.60;99.90;;;;;;4993749;28;20058;-82
2023/04/25 07:00:37;;;;;;;12.23;1.20;;;7.60;99.90;;;;;;4993283;28;20046;-79
2023/04/25 07:03:23;;;;;;;9.23;1.45;;;7.60;99.90;;;;;;4992104;28;20097;-84
2023/04/25 07:06:09;;;;;;;9.00;1.45;;;7.40;99.90;;;;;;4991932;28;20145;-81
2023/04/25 07:08:56;;;;;;;5.32;0.77;;;7.20;99.90;;;;;;4992239;28;20535;-81
2023/04/25 07:11:42;;;;;;;3.50;1.00;;;7.00;99.90;;;;;;4979498;28;20050;-80
2023/04/25 07:14:28;;;;;;;4.75;0.57;;;6.90;99.90;;;;;;4993162;28;20113;-79
2023/04/25 07:17:15;;;;;;;5.65;0.68;;;6.90;99.90;;;;;;4991870;28;20143;-82
2023/04/25 07:20:01;;;;;;;5.82;0.90;;;7.00;99.90;;;;;;4992031;28;20593;-83
2023/04/25 07:22:47;;;;;;;8.95;1.08;;;7.40;99.90;;;;;;4993182;28;20054;-83
2023/04/25 07:25:33;;;;;;;4.97;1.10;;;7.80;99.90;;;;;;4979039;28;20105;-81
2023/04/25 07:28:23;;;;;;;16.30;1.40;;;8.10;99.90;;;;;;5011902;28;20136;-83
2023/04/25 07:31:10;;;;;;;9.88;1.38;;;8.10;99.90;;;;;;4995476;28;20058;-82
2023/04/25 07:33:56;;;;;;;6.65;1.45;;;7.50;99.90;;;;;;5013151;28;20045;-84
2023/04/25 07:36:43;;;;;;;7.38;1.85;;;7.00;99.90;;;;;;4982901;28;20108;-82
2023/04/25 07:39:29;;;;;;;14.32;1.45;;;6.70;99.90;;;;;;4994651;28;20104;-84
2023/04/25 07:42:15;;;;;;;8.25;1.23;;;6.40;99.90;;;;;;4995963;28;20414;-82
2023/04/25 07:45:02;;;;;;;5.85;1.02;;;6.20;99.90;;;;;;5010095;28;20057;-84
2023/04/25 07:47:49;;;;;;;8.80;1.25;;;5.90;99.90;;;;;;5012524;28;20566;-79
2023/04/25 07:50:35;;;;;;;4.65;0.90;;;5.70;99.90;;;;;;4982141;28;20129;-80
2023/04/25 07:53:21;;;;;;;8.13;1.08;;;5.50;99.90;;;;;;4994142;28;20068;-81
2023/04/25 07:56:07;;;;;;;2.83;0.77;;;5.70;99.90;;;;;;5013252;28;20159;-84
2023/04/25 07:58:53;;;;;;;6.50;1.55;;;5.90;99.90;;;;;;4994908;28;20117;-80
2023/04/25 08:01:39;;;;;;;5.78;1.20;;;6.20;99.90;;;;;;4997894;28;20128;-80
2023/04/25 08:04:26;;;;;;;7.20;1.48;;;6.40;99.90;;;;;;5009356;28;20061;-80
2023/04/25 08:07:12;;;;;;;6.53;1.17;;;6.60;99.90;;;;;;4994980;28;20054;-81
2023/04/25 08:09:58;;;;;;;12.57;1.95;;;6.80;99.90;;;;;;5011943;28;20050;-81
2023/04/25 08:12:44;;;;;;;15.32;2.47;;;7.00;99.90;;;;;;4993560;28;20045;-79
2023/04/25 08:15:30;;;;;;;17.17;2.67;;;7.40;99.90;;;;;;4996562;28;20088;-81
2023/04/25 08:18:16;;;;;;;11.52;2.22;;;7.90;99.90;;;;;;4993809;28;20065;-79
2023/04/25 08:21:02;;;;;;;16.10;1.98;;;8.40;99.90;;;;;;4995389;28;20053;-82
2023/04/25 08:23:48;;;;;;;15.30;3.20;;;8.70;99.90;;;;;;5012492;28;20046;-81
2023/04/25 08:26:37;;;;;;;11.57;1.83;;;9.00;99.90;;;;;;4993085;28;20058;-81
2023/04/25 08:29:25;;;;;;;9.88;1.52;;;9.10;99.90;;;;;;4994879;28;20053;-84
2023/04/25 08:32:11;;;;;;;7.60;1.55;;;9.40;99.90;;;;;;5012379;28;20103;-82
2023/04/25 08:34:57;;;;;;;16.10;3.13;;;9.70;99.90;;;;;;4993297;28;20054;-82
2023/04/25 08:37:44;;;;;;;16.90;2.20;;;9.70;99.90;;;;;;4993120;28;20056;-84
2023/04/25 08:40:37;;;;;;;17.92;2.47;;;9.80;99.90;;;;;;4992658;28;20395;-83
2023/04/25 08:43:25;;;;;;;12.57;1.88;;;10.10;99.90;;;;;;4980777;28;20108;-82
2023/04/25 08:46:12;;;;;;;14.48;1.73;;;10.30;99.90;;;;;;5009788;28;20152;-81
2023/04/25 08:49:02;;;;;;;14.18;2.22;;;10.70;99.90;;;;;;5012038;28;20089;-85
2023/04/25 08:51:50;;;;;;;14.60;2.83;;;10.40;99.90;;;;;;5011416;28;20050;-82
2023/04/25 08:54:43;;;;;;;7.72;1.35;;;10.10;99.90;;;;;;4993511;28;20057;-81
2023/04/25 08:57:30;;;;;;;7.32;1.20;;;9.70;99.90;;;;;;5011051;28;20057;-80
2023/04/25 09:00:18;;;;;;;9.80;1.92;;;9.40;99.90;;;;;;5010166;28;20054;-82
2023/04/25 09:03:05;;;;;;;6.38;1.20;;;9.40;99.90;;;;;;4992570;28;20050;-78
2023/04/25 09:05:51;;;;;;;5.30;1.52;;;9.70;99.90;;;;;;5011854;28;20092;-83
2023/04/25 09:08:39;;;;;;;12.90;2.17;;;9.80;99.90;;;;;;4992284;28;20045;-83
2023/04/25 09:11:25;;;;;;;8.48;1.67;;;9.80;99.90;;;;;;5010190;28;20144;-81
2023/04/25 09:14:17;;;;;;;7.72;1.27;;;9.80;99.90;;;;;;5010292;28;20057;-80
2023/04/25 09:17:07;;;;;;;10.48;2.42;;;9.80;99.90;;;;;;5010359;28;20046;-80
2023/04/25 09:19:53;;;;;;;9.00;2.05;;;9.70;99.90;;;;;;4995829;28;20052;-83
2023/04/25 09:22:39;;;;;;;19.98;3.33;;;9.90;99.90;;;;;;5011759;28;20057;-82
2023/04/25 09:25:25;;;;;;;16.38;3.13;;;10.10;99.90;;;;;;5011520;28;20116;-82
2023/04/25 09:28:11;;;;;;;17.38;2.20;;;10.30;99.90;;;;;;4976548;28;20054;-80
2023/04/25 09:30:58;;;;;;;12.65;2.10;;;10.30;99.90;;;;;;4987388;28;20112;-82
2023/04/25 09:33:44;;;;;;;9.52;2.13;;;10.50;99.90;;;;;;4991677;28;20058;-80
2023/04/25 09:36:31;;;;;;;18.30;2.88;;;10.70;99.90;;;;;;4989980;28;20112;-81
2023/04/25 09:39:19;;;;;;;13.50;2.35;;;11.10;99.90;;;;;;4988498;28;20054;-82
2023/04/25 09:42:05;;;;;;;17.73;3.60;;;11.30;99.90;;;;;;4991240;28;20047;-81
2023/04/25 09:44:53;;;;;;;13.60;1.90;;;11.10;99.90;;;;;;4990778;28;20058;-81
2023/04/25 09:47:43;;;;;;;14.10;2.40;;;10.90;99.90;;;;;;4989939;28;20529;-82
2023/04/25 09:50:29;;;;;;;16.13;3.05;;;10.90;99.90;;;;;;4976058;28;20050;-84
2023/04/25 09:53:15;;;;;;;11.05;1.73;;;10.70;99.90;;;;;;4990374;28;20590;-85
2023/04/25 09:56:05;;;;;;;10.35;1.90;;;11.10;99.90;;;;;;4989809;28;20066;-82
2023/04/25 09:58:54;;;;;;;7.88;1.52;;;11.60;99.90;;;;;;4989610;28;20054;-85
2023/04/25 10:01:42;;;;;;;14.35;2.35;;;11.80;99.60;;;;;;4976175;28;20114;-83
2023/04/25 10:04:34;;;;;;;14.13;1.73;;;11.90;99.10;;;;;;4988897;28;20061;-84
2023/04/25 10:07:28;;;;;;;11.77;2.28;;;11.90;98.00;;;;;;4990033;28;20043;-86
2023/04/25 10:10:15;;;;;;;11.10;2.00;;;11.30;99.90;;;;;;4976749;28;20141;-84
2023/04/25 10:13:04;;;;;;;13.07;2.10;;;10.60;99.90;;;;;;4988934;28;20050;-84
2023/04/25 10:15:53;;;;;;;8.18;1.38;;;10.00;99.90;;;;;;4990031;28;20105;-84
2023/04/25 10:18:39;;;;;;;9.32;1.52;;;9.90;99.90;;;;;;4988505;28;20058;-82
2023/04/25 10:21:28;;;;;;;12.57;1.88;;;9.90;99.90;;;;;;4988017;28;20112;-82
2023/04/25 10:24:15;;;;;;;10.18;1.27;;;10.10;99.90;;;;;;4991923;28;20410;-85
2023/04/25 10:27:01;;;;;;;6.85;0.90;;;10.40;99.90;;;;;;4982862;28;20053;-81
2023/04/25 10:30:18;;;;;;;9.98;1.60;;;10.80;99.90;;;;;;5013863;28;20061;-84
2023/04/25 10:33:18;;;;;;;8.18;1.20;;;11.20;98.30;;;;;;4996356;28;20053;-83
2023/04/25 10:36:13;;;;;;;4.75;1.13;;;11.10;98.20;;;;;;4996734;28;20046;-84
2023/04/25 10:39:08;;;;;;;7.97;1.30;;;11.00;98.70;;;;;;4997060;28;20096;-82
2023/04/25 10:42:02;;;;;;;9.10;1.67;;;11.10;98.80;;;;;;4996074;28;20069;-82
2023/04/25 10:45:04;;;;;;;17.60;1.90;;;11.20;98.40;;;;;;4995142;28;20062;-83
2023/04/25 10:47:50;;;;;;;8.18;1.50;;;11.50;99.20;;;;;;4996345;28;20054;-83
2023/04/25 10:50:39;;;;;;;12.02;1.85;;;11.50;99.10;;;;;;4998376;28;20046;-83
2023/04/25 10:53:33;;;;;;;11.18;1.80;;;11.40;99.00;;;;;;4996837;28;20045;-83
2023/04/25 10:56:21;;;;;;;12.40;1.88;;;11.70;99.20;;;;;;5014120;28;20123;-84
2023/04/25 10:59:16;;;;;;;11.10;1.58;;;11.40;99.70;;;;;;5014215;28;20077;-83
2023/04/25 11:02:12;;;;;;;9.30;2.70;;;11.60;99.90;;;;;;4995637;28;20501;-83
2023/04/25 11:05:00;;;;;;;8.57;1.85;;;11.80;98.20;;;;;;4996432;28;20053;-85
2023/04/25 11:07:57;;;;;;;11.38;2.08;;;11.90;98.20;;;;;;4999539;28;20054;-83
2023/04/25 11:10:44;;;;;;;10.25;1.48;;;12.20;97.30;;;;;;4996031;28;20692;-83
2023/04/25 11:13:31;;;;;;;8.32;1.50;;;12.40;97.50;;;;;;4996398;28;20049;-85
2023/04/25 11:16:19;;;;;;;7.32;1.45;;;12.80;97.10;;;;;;4996032;28;20107;-85
2023/04/25 11:19:05;;;;;;;8.45;1.63;;;12.90;95.70;;;;;;4996084;28;20147;-84
2023/04/25 11:21:59;;;;;;;8.68;1.20;;;13.20;95.80;;;;;;4982167;28;20077;-84
2023/04/25 11:24:46;;;;;;;11.48;1.52;;;13.30;93.70;;;;;;5013893;28;20053;-84
2023/04/25 11:27:32;;;;;;;12.30;2.03;;;13.50;93.90;;;;;;5013655;28;20076;-84
2023/04/25 11:30:20;;;;;;;9.07;1.70;;;13.70;94.40;;;;;;5014041;28;20136;-81
2023/04/25 11:33:06;;;;;;;15.88;3.35;;;13.60;95.00;;;;;;4995620;28;20084;-84
2023/04/25 11:35:55;;;;;;;12.70;1.77;;;14.10;94.40;;;;;;5011102;28;20050;-83
2023/04/25 11:38:41;;;;;;;6.60;1.33;;;14.10;93.20;;;;;;4995223;28;20054;-83
2023/04/25 11:41:27;;;;;;;6.53;1.52;;;14.10;92.50;;;;;;4994169;28;20128;-80
2023/04/25 11:44:18;;;;;;;10.20;1.67;;;14.40;92.90;;;;;;4994307;28;20137;-82
2023/04/25 11:47:04;;;;;;;8.30;1.63;;;14.30;92.30;;;;;;5013622;28;20045;-82
2023/04/25 11:49:53;;;;;;;10.55;2.13;;;14.20;92.20;;;;;;4994887;28;20077;-79
2023/04/25 11:52:47;;;;;;;8.45;1.73;;;13.90;92.60;;;;;;5012714;28;20112;-83
2023/04/25 11:55:33;;;;;;;11.27;1.90;;;13.60;92.30;;;;;;4997797;28;20449;-80
2023/04/25 11:58:19;;;;;;;9.90;1.77;;;13.60;93.70;;;;;;4994916;28;20069;-82
2023/04/25 12:01:05;;;;;;;11.25;1.73;;;13.70;93.90;;;;;;4997484;28;20064;-83
2023/04/25 12:03:52;;;;;;;8.88;1.83;;;13.70;92.90;;;;;;4996192;28;20060;-83
2023/04/25 12:06:42;;;;;;;5.00;1.30;;;13.90;94.10;;;;;;4996455;28;20568;-83
2023/04/25 12:09:32;;;;;;;7.18;1.05;;;14.20;92.60;;;;;;4995121;28;20410;-82
2023/04/25 12:12:18;;;;;;;11.60;1.52;;;14.30;91.30;;;;;;5010051;28;20057;-82
2023/04/25 12:15:17;;;;;;;12.82;2.17;;;14.50;91.30;;;;;;5010643;28;20136;-83
2023/04/25 12:18:03;;;;;;;6.35;1.23;;;14.70;91.30;;;;;;5012047;28;20053;-83
2023/04/25 12:20:49;;;;;;;7.78;1.55;;;15.10;91.10;;;;;;5010957;28;20077;-82
2023/04/25 12:23:39;;;;;;;8.55;1.40;;;15.70;91.10;;;;;;5010184;28;20081;-84
2023/04/25 12:26:25;;;;;;;7.70;1.00;;;15.00;90.20;;;;;;4981292;28;20080;-83
2023/04/25 12:29:23;;;;;;;8.68;1.80;;;14.70;91.00;;;;;;4994288;28;20057;-84
2023/04/25 12:32:09;;;;;;;5.68;1.05;;;14.20;90.40;;;;;;4981320;28;20089;-80
2023/04/25 12:34:56;;;;;;;10.05;1.58;;;13.80;91.10;;;;;;4993486;28;20049;-86
2023/04/25 12:37:42;;;;;;;5.07;1.05;;;14.10;91.30;;;;;;5012046;28;20052;-83
2023/04/25 12:40:28;;;;;;;7.80;1.30;;;14.60;91.10;;;;;;4993993;28;20219;-82
2023/04/25 12:43:14;;;;;;;6.82;1.45;;;14.90;90.40;;;;;;5010762;28;20076;-86
2023/04/25 12:46:01;;;;;;;8.13;2.00;;;14.90;89.70;;;;;;4980978;28;20136;-83
2023/04/25 12:48:46;;;;;;;13.15;2.58;;;14.50;91.10;;;;;;4997146;28;20433;-83
2023/04/25 12:51:33;;;;;;;8.70;1.60;;;14.80;91.60;;;;;;4992972;28;20565;-84
2023/04/25 12:54:19;;;;;;;9.70;1.73;;;15.00;90.60;;;;;;4992973;28;20728;-82
2023/04/25 12:57:05;;;;;;;12.90;2.28;;;15.50;90.00;;;;;;4994401;28;20093;-82
2023/04/25 12:59:52;;;;;;;10.55;1.95;;;16.10;89.20;;;;;;4994011;28;20054;-82
2023/04/25 13:02:38;;;;;;;7.13;1.60;;;16.60;87.30;;;;;;5009420;28;20053;-82
2023/04/25 13:05:24;;;;;;;6.25;1.30;;;16.80;82.60;;;;;;4995970;28;20406;-83
2023/04/25 13:08:11;;;;;;;4.45;1.30;;;16.60;77.30;;;;;;5009827;28;20804;-83
2023/04/25 13:10:57;;;;;;;5.50;1.27;;;16.60;77.10;;;;;;4981289;28;20057;-83
2023/04/25 13:13:44;;;;;;;9.45;1.52;;;17.20;75.90;;;;;;4993217;28;20049;-83
2023/04/25 13:16:30;;;;;;;4.35;1.30;;;17.30;77.00;;;;;;4993478;28;20104;-86
2023/04/25 13:19:16;;;;;;;14.98;2.72;;;17.50;77.90;;;;;;4980157;28;20056;-84
2023/04/25 13:22:04;;;;;;;10.50;1.60;;;17.30;76.10;;;;;;4980378;28;20128;-86
2023/04/25 13:24:50;;;;;;;7.85;1.75;;;17.30;76.20;;;;;;4993631;28;20061;-86
2023/04/25 13:27:37;;;;;;;11.18;1.88;;;17.80;75.70;;;;;;4992191;28;20057;-85
2023/04/25 13:30:23;;;;;;;9.15;1.98;;;17.50;75.30;;;;;;5009493;28;20056;-84
2023/04/25 13:33:10;;;;;;;7.80;1.90;;;17.20;76.70;;;;;;5010396;28;20140;-82
2023/04/25 13:35:57;;;;;;;13.27;2.05;;;17.40;75.60;;;;;;4993951;28;20478;-85
2023/04/25 13:38:44;;;;;;;9.52;1.50;;;18.00;77.20;;;;;;4993796;28;20057;-83
2023/04/25 13:41:30;;;;;;;7.40;1.45;;;17.80;74.70;;;;;;4994336;28;20050;-86
2023/04/25 13:44:16;;;;;;;10.60;1.70;;;18.30;71.50;;;;;;4980346;28;20065;-82
2023/04/25 13:47:03;;;;;;;8.43;1.30;;;18.20;69.90;;;;;;4992116;28;20058;-82
2023/04/25 13:49:50;;;;;;;8.48;1.50;;;18.90;66.80;;;;;;4992566;28;20053;-84
2023/04/25 13:52:36;;;;;;;6.95;1.25;;;19.20;62.90;;;;;;4992078;28;20042;-82
2023/04/25 13:55:22;;;;;;;9.20;2.03;;;19.40;63.50;;;;;;4979789;28;20060;-82
2023/04/25 13:58:09;;;;;;;10.95;1.92;;;18.10;62.60;;;;;;4977591;28;20061;-85
2023/04/25 14:00:56;;;;;;;7.78;1.13;;;17.40;64.70;;;;;;4980038;28;20058;-85
2023/04/25 14:03:42;;;;;;;6.65;2.10;;;17.00;66.30;;;;;;4991796;28;20084;-83
2023/04/25 14:06:28;;;;;;;8.63;1.70;;;16.80;68.20;;;;;;4991513;28;20085;-84
2023/04/25 14:09:15;;;;;;;13.40;1.88;;;17.10;72.50;;;;;;4993065;28;20046;-84
2023/04/25 14:12:01;;;;;;;6.95;1.10;;;18.00;70.90;;;;;;4992296;28;20054;-82
2023/04/25 14:14:47;;;;;;;7.20;1.80;;;17.60;67.80;;;;;;4980244;28;20065;-82
2023/04/25 14:17:34;;;;;;;6.22;1.33;;;17.50;69.20;;;;;;5009936;28;20046;-84
2023/04/25 14:20:21;;;;;;;10.18;2.00;;;17.80;65.00;;;;;;5007119;28;20057;-82
2023/04/25 14:23:07;;;;;;;8.63;1.85;;;18.40;64.70;;;;;;5008581;28;20093;-83
2023/04/25 14:25:53;;;;;;;10.32;1.70;;;18.90;65.70;;;;;;5010810;28;20073;-81
2023/04/25 14:28:39;;;;;;;11.20;1.73;;;18.60;65.40;;;;;;4973263;28;20050;-82
2023/04/25 14:31:25;;;;;;;10.10;1.77;;;19.20;65.50;;;;;;4971812;28;20375;-83